Time;durP1;ratioP1;P1;durP2;ratioP2;P2;SDS_P1;SDS_P2;PMS_P1;PMS_P2;Temp;Humidity;BMP_temperature;BMP_pressure;BME280_temperature;BME280_humidity;BME280_pressure;Samples;Min_cycle;Max_cycle;Signal;HPM_P1;HPM_P2
2022/08/13 00:02:09;;;;;;;0.55;0.43;;;25.20;46.80;;;;;;5046946;28;20428;-78
2022/08/13 00:04:37;;;;;;;0.65;0.57;;;25.30;46.90;;;;;;5051119;28;20416;-78
2022/08/13 00:07:07;;;;;;;1.50;0.63;;;25.30;46.70;;;;;;5047946;28;20029;-78
2022/08/13 00:09:39;;;;;;;2.03;0.60;;;25.30;46.40;;;;;;5045982;28;20033;-78
2022/08/13 00:14:53;;;;;;;0.50;0.50;;;25.30;46.10;;;;;;5037303;28;20082;-79
2022/08/13 00:17:20;;;;;;;1.05;0.50;;;25.30;46.40;;;;;;5047647;28;20029;-80
2022/08/13 00:19:50;;;;;;;0.77;0.40;;;25.30;46.40;;;;;;5033492;28;20386;-79
2022/08/13 00:22:19;;;;;;;;;;;25.30;46.10;;;;;;5046871;28;20064;-79
2022/08/13 00:24:45;;;;;;;1.20;0.47;;;25.30;46.10;;;;;;5034683;28;20313;-78
2022/08/13 00:27:11;;;;;;;2.15;0.90;;;25.30;46.00;;;;;;5038019;28;20116;-79
2022/08/13 00:29:37;;;;;;;1.23;0.50;;;25.20;46.00;;;;;;5040298;28;20088;-76
2022/08/13 00:32:04;;;;;;;2.65;0.50;;;25.30;46.00;;;;;;5043371;28;20110;-78
2022/08/13 00:34:30;;;;;;;0.90;0.52;;;25.30;46.00;;;;;;5030221;28;20114;-77
2022/08/13 00:36:56;;;;;;;1.38;0.70;;;25.20;46.00;;;;;;5051353;28;20033;-77
2022/08/13 00:39:21;;;;;;;0.85;0.60;;;25.10;46.20;;;;;;5049159;28;20033;-77
2022/08/13 00:41:47;;;;;;;0.60;0.40;;;25.10;46.20;;;;;;5046703;28;20551;-77
2022/08/13 00:44:16;;;;;;;0.45;0.40;;;25.00;46.90;;;;;;5040330;28;20036;-77
2022/08/13 00:46:42;;;;;;;1.10;0.50;;;24.90;46.90;;;;;;5036635;28;20025;-77
2022/08/13 00:49:11;;;;;;;1.15;0.52;;;24.80;47.20;;;;;;5020515;28;20028;-77
2022/08/13 00:51:38;;;;;;;1.05;0.60;;;24.80;47.90;;;;;;5047734;28;20500;-77
2022/08/13 00:54:07;;;;;;;0.80;0.40;;;24.80;47.80;;;;;;5027162;28;20048;-77
2022/08/13 00:56:34;;;;;;;0.40;0.40;;;24.70;48.00;;;;;;5034128;28;20079;-76
2022/08/13 00:59:07;;;;;;;3.33;0.60;;;24.60;48.20;;;;;;5047367;28;20465;-76
2022/08/13 01:01:35;;;;;;;0.95;0.55;;;24.60;48.30;;;;;;5043770;28;20041;-76
2022/08/13 01:04:06;;;;;;;1.70;0.57;;;24.50;48.50;;;;;;5039611;28;20453;-76
2022/08/13 01:06:32;;;;;;;1.25;0.50;;;24.50;48.60;;;;;;5041537;28;20056;-76
2022/08/13 01:08:58;;;;;;;0.57;0.43;;;24.50;49.10;;;;;;5030860;28;20068;-76
2022/08/13 01:11:24;;;;;;;0.40;0.40;;;24.50;48.90;;;;;;5047969;28;20021;-77
2022/08/13 01:13:52;;;;;;;1.77;0.40;;;24.50;49.40;;;;;;5046072;28;20025;-78
2022/08/13 01:16:19;;;;;;;1.80;0.60;;;24.40;49.30;;;;;;5049611;28;20033;-77
2022/08/13 01:18:50;;;;;;;1.05;0.50;;;24.40;49.30;;;;;;5041302;28;20033;-78
2022/08/13 01:21:23;;;;;;;1.00;0.57;;;24.40;49.90;;;;;;5045747;28;20104;-78
2022/08/13 01:23:52;;;;;;;0.60;0.45;;;24.30;50.20;;;;;;5037321;28;20030;-77
2022/08/13 01:26:20;;;;;;;0.77;0.52;;;24.30;50.30;;;;;;5043501;28;20128;-78
2022/08/13 01:28:48;;;;;;;1.88;0.82;;;24.30;50.20;;;;;;5050071;28;20025;-77
2022/08/13 01:31:16;;;;;;;0.60;0.60;;;24.20;51.20;;;;;;5050415;28;20063;-77
2022/08/13 01:33:43;;;;;;;1.60;0.70;;;24.10;50.80;;;;;;5048858;28;20032;-77
2022/08/13 01:36:10;;;;;;;1.10;0.82;;;24.10;51.10;;;;;;5047751;28;20376;-77
2022/08/13 01:38:38;;;;;;;0.70;0.60;;;24.10;51.50;;;;;;5047335;28;20033;-78
2022/08/13 01:41:08;;;;;;;1.15;0.75;;;24.00;51.70;;;;;;5048942;28;20029;-78
2022/08/13 01:43:37;;;;;;;1.45;0.70;;;24.00;51.60;;;;;;5049668;28;20028;-78
2022/08/13 01:46:05;;;;;;;1.15;0.80;;;24.00;52.10;;;;;;5044461;28;20116;-78
2022/08/13 01:51:22;;;;;;;2.30;0.75;;;23.80;52.20;;;;;;5047592;28;20409;-76
2022/08/13 01:53:49;;;;;;;1.08;0.50;;;23.80;52.50;;;;;;5036891;28;20446;-77
2022/08/13 01:56:19;;;;;;;0.50;0.50;;;23.70;52.90;;;;;;5039638;28;20486;-77
2022/08/13 01:58:48;;;;;;;0.75;0.50;;;23.70;52.90;;;;;;5035659;28;20060;-77
2022/08/13 02:01:14;;;;;;;0.55;0.52;;;23.70;53.10;;;;;;5043362;28;20037;-77
2022/08/13 02:03:47;;;;;;;1.10;0.60;;;23.70;53.40;;;;;;5037647;28;20048;-77
2022/08/13 02:06:13;;;;;;;1.23;0.70;;;23.60;53.60;;;;;;5049340;28;20036;-76
2022/08/13 02:08:40;;;;;;;1.30;0.70;;;23.60;53.50;;;;;;5036114;28;20034;-75
2022/08/13 02:11:06;;;;;;;1.27;0.70;;;23.60;54.40;;;;;;5042908;28;20048;-76
2022/08/13 02:13:32;;;;;;;0.50;0.50;;;23.50;55.00;;;;;;5043926;28;20100;-76
2022/08/13 02:15:58;;;;;;;2.60;0.73;;;23.50;54.20;;;;;;5047766;28;20023;-76
2022/08/13 02:18:26;;;;;;;0.98;0.77;;;23.40;54.30;;;;;;5048767;28;20512;-75
2022/08/13 02:20:57;;;;;;;0.63;0.60;;;23.50;54.40;;;;;;5042661;28;20534;-75
2022/08/13 02:23:28;;;;;;;2.78;0.65;;;23.50;54.70;;;;;;5044092;28;20032;-75
2022/08/13 02:25:55;;;;;;;0.50;0.45;;;23.50;54.50;;;;;;5046413;28;20373;-75
2022/08/13 02:28:21;;;;;;;1.23;0.77;;;23.50;54.90;;;;;;5041601;28;20026;-75
2022/08/13 02:30:52;;;;;;;1.95;0.70;;;23.50;54.80;;;;;;5034531;28;20033;-76
2022/08/13 02:33:18;;;;;;;2.45;0.68;;;23.50;54.60;;;;;;5048868;28;20029;-77
2022/08/13 02:35:45;;;;;;;0.65;0.55;;;23.50;54.60;;;;;;5044535;28;20025;-77
2022/08/13 02:38:11;;;;;;;0.93;0.85;;;23.50;54.80;;;;;;5045656;28;20112;-77
2022/08/13 02:43:26;;;;;;;3.05;1.05;;;23.50;55.20;;;;;;5042389;28;20129;-78
2022/08/13 02:45:54;;;;;;;1.35;0.73;;;23.40;55.50;;;;;;5050673;28;20036;-77
2022/08/13 02:48:24;;;;;;;1.48;0.80;;;23.40;55.30;;;;;;5023926;28;20040;-78
2022/08/13 02:50:55;;;;;;;2.10;1.00;;;23.40;55.70;;;;;;5044355;28;20035;-77
2022/08/13 02:53:21;;;;;;;6.40;1.55;;;23.40;56.00;;;;;;5047143;28;20431;-76
2022/08/13 02:55:47;;;;;;;4.00;1.48;;;23.30;57.30;;;;;;5046885;28;20112;-76
2022/08/13 02:58:14;;;;;;;0.95;0.88;;;23.10;57.70;;;;;;5044793;28;20105;-76
2022/08/13 03:00:41;;;;;;;1.40;1.05;;;23.10;57.00;;;;;;5045593;28;20036;-76
2022/08/13 03:03:08;;;;;;;2.42;0.90;;;23.00;58.40;;;;;;5039718;28;20018;-78
2022/08/13 03:05:34;;;;;;;1.40;0.90;;;23.00;57.50;;;;;;5043292;28;20058;-78
2022/08/13 03:08:19;;;;;;;2.45;1.15;;;23.00;57.50;;;;;;5054613;28;20362;-78
2022/08/13 03:10:45;;;;;;;2.03;1.17;;;23.00;57.80;;;;;;5044455;28;20025;-78
2022/08/13 03:13:20;;;;;;;1.02;0.80;;;23.10;58.10;;;;;;5032066;28;20021;-79
2022/08/13 03:15:50;;;;;;;2.42;1.00;;;23.20;58.30;;;;;;5041321;28;20021;-78
2022/08/13 03:18:17;;;;;;;1.75;1.00;;;23.10;57.90;;;;;;5042371;28;20024;-78
2022/08/13 03:20:43;;;;;;;2.92;0.90;;;23.10;58.70;;;;;;5052283;28;20029;-76
2022/08/13 03:23:09;;;;;;;1.17;0.90;;;23.00;58.10;;;;;;5047188;28;20477;-77
2022/08/13 03:25:35;;;;;;;1.88;1.23;;;23.00;58.40;;;;;;5046476;28;20449;-77
2022/08/13 03:28:02;;;;;;;2.20;1.58;;;23.00;59.20;;;;;;5048490;28;20052;-77
2022/08/13 03:30:34;;;;;;;1.17;1.02;;;23.00;59.10;;;;;;5052775;28;20033;-77
2022/08/13 03:33:07;;;;;;;1.63;1.00;;;23.00;58.70;;;;;;5043703;28;20045;-77
2022/08/13 03:35:35;;;;;;;1.80;1.33;;;22.90;59.00;;;;;;5046777;28;20701;-78
2022/08/13 03:38:03;;;;;;;1.30;1.08;;;22.90;59.80;;;;;;5034936;28;20025;-78
2022/08/13 03:41:00;;;;;;;1.67;1.00;;;22.90;59.00;;;;;;5046461;28;20055;-77
2022/08/13 03:43:16;;;;;;;2.08;1.30;;;22.90;59.40;;;;;;5044613;28;20162;-77
2022/08/13 03:45:44;;;;;;;1.20;1.00;;;22.90;59.30;;;;;;5048436;28;20025;-77
2022/08/13 03:48:13;;;;;;;1.40;1.20;;;23.00;59.20;;;;;;5045467;28;20120;-77
2022/08/13 03:50:40;;;;;;;1.90;1.00;;;22.90;59.20;;;;;;5045148;28;20057;-78
2022/08/13 03:53:07;;;;;;;1.33;0.90;;;22.90;59.10;;;;;;5041706;28;20060;-78
2022/08/13 03:55:37;;;;;;;1.55;1.30;;;22.90;59.40;;;;;;5044388;28;20055;-78
2022/08/13 03:58:05;;;;;;;2.38;1.17;;;22.90;59.80;;;;;;5038927;28;20033;-77
2022/08/13 04:00:33;;;;;;;2.00;1.33;;;22.90;59.30;;;;;;5044461;28;20025;-77
2022/08/13 04:03:00;;;;;;;1.50;1.20;;;22.90;59.70;;;;;;5041939;28;20579;-78
2022/08/13 04:05:27;;;;;;;3.20;1.27;;;22.90;60.00;;;;;;5050943;28;20027;-77
2022/08/13 04:07:53;;;;;;;2.63;1.33;;;22.90;59.50;;;;;;5040807;28;20486;-75
2022/08/13 04:10:20;;;;;;;1.52;1.30;;;22.90;59.60;;;;;;5051172;28;20025;-75
2022/08/13 04:12:46;;;;;;;2.58;1.55;;;22.80;59.50;;;;;;5051242;28;20102;-75
2022/08/13 04:15:12;;;;;;;2.22;1.30;;;22.90;59.60;;;;;;5041296;28;20109;-75
2022/08/13 04:17:38;;;;;;;3.03;1.77;;;22.90;59.70;;;;;;5046467;28;20440;-75
2022/08/13 04:20:06;;;;;;;7.30;1.70;;;22.90;59.90;;;;;;5040227;28;20031;-76
2022/08/13 04:22:33;;;;;;;4.03;1.58;;;22.90;59.90;;;;;;5044624;28;20067;-76
2022/08/13 04:24:59;;;;;;;2.88;1.73;;;22.90;59.80;;;;;;5030326;28;20029;-76
2022/08/13 04:27:25;;;;;;;2.67;1.70;;;22.90;59.70;;;;;;5032520;28;20119;-76
2022/08/13 04:29:53;;;;;;;3.00;2.53;;;22.90;59.70;;;;;;5039498;28;20044;-76
2022/08/13 04:32:19;;;;;;;3.90;1.83;;;22.90;60.00;;;;;;5044575;28;20033;-76
2022/08/13 04:34:45;;;;;;;4.95;2.72;;;22.90;59.80;;;;;;5043530;28;20408;-76
2022/08/13 04:37:11;;;;;;;3.45;1.60;;;22.80;60.30;;;;;;5032612;28;20120;-76
2022/08/13 04:39:37;;;;;;;3.88;1.90;;;22.80;59.80;;;;;;5050325;28;20033;-76
2022/08/13 04:42:07;;;;;;;2.53;1.95;;;22.80;60.10;;;;;;5034440;28;20397;-76
2022/08/13 04:44:33;;;;;;;5.45;2.95;;;22.80;60.00;;;;;;5046858;28;20029;-78
2022/08/13 04:46:59;;;;;;;5.07;2.92;;;22.70;60.10;;;;;;5042327;28;20035;-77
2022/08/13 04:49:25;;;;;;;2.65;2.22;;;22.70;60.30;;;;;;5038259;28;20104;-78
2022/08/13 04:51:51;;;;;;;4.53;3.17;;;22.70;60.00;;;;;;5042863;28;20065;-77
2022/08/13 04:54:19;;;;;;;4.50;2.83;;;22.60;60.20;;;;;;5043714;28;20044;-77
2022/08/13 04:56:45;;;;;;;2.85;2.25;;;22.70;60.20;;;;;;5034600;28;20363;-79
2022/08/13 04:59:12;;;;;;;4.38;3.00;;;22.70;60.40;;;;;;5047646;28;20029;-79
2022/08/13 05:01:38;;;;;;;2.55;2.28;;;22.70;60.60;;;;;;5046395;28;20021;-79
2022/08/13 05:04:05;;;;;;;2.85;2.13;;;22.70;60.30;;;;;;5034068;28;20481;-79
2022/08/13 05:06:31;;;;;;;3.97;3.00;;;22.80;60.20;;;;;;5045156;28;20465;-79
2022/08/13 05:08:58;;;;;;;4.10;2.72;;;22.80;60.20;;;;;;5031223;28;20029;-79
2022/08/13 05:11:25;;;;;;;3.30;2.22;;;22.80;60.30;;;;;;5043832;28;20123;-79
2022/08/13 05:13:50;;;;;;;4.88;2.65;;;22.80;60.10;;;;;;5041620;28;20017;-78
2022/08/13 05:16:18;;;;;;;4.00;2.58;;;22.80;60.40;;;;;;5039387;28;20516;-78
2022/08/13 05:18:50;;;;;;;4.90;2.50;;;22.70;60.40;;;;;;5042245;28;20033;-78
2022/08/13 05:21:16;;;;;;;4.60;2.30;;;22.70;60.50;;;;;;5043593;28;20035;-77
2022/08/13 05:23:42;;;;;;;5.10;3.17;;;22.70;60.70;;;;;;5040139;28;20025;-76
2022/08/13 05:26:10;;;;;;;3.88;2.42;;;22.70;60.30;;;;;;5028559;28;20037;-77
2022/08/13 05:28:37;;;;;;;3.60;2.45;;;22.80;60.50;;;;;;5040757;28;20482;-77
2022/08/13 05:31:03;;;;;;;4.00;2.42;;;22.80;60.10;;;;;;5041859;28;20025;-76
2022/08/13 05:33:30;;;;;;;4.05;2.65;;;22.70;59.90;;;;;;5041607;28;20039;-76
2022/08/13 05:35:59;;;;;;;3.58;2.83;;;22.60;60.10;;;;;;5047703;28;20145;-76
2022/08/13 05:38:27;;;;;;;5.22;2.65;;;22.60;60.30;;;;;;5049819;28;20482;-77
2022/08/13 05:40:59;;;;;;;4.53;2.33;;;22.60;60.20;;;;;;5031181;28;20025;-78
2022/08/13 05:43:27;;;;;;;3.28;2.33;;;22.70;60.20;;;;;;5036280;28;20119;-78
2022/08/13 05:45:59;;;;;;;3.88;1.77;;;22.70;60.20;;;;;;5045132;28;20029;-79
2022/08/13 05:48:58;;;;;;;4.00;2.00;;;22.70;60.00;;;;;;5045457;28;20033;-79
2022/08/13 05:51:28;;;;;;;2.78;1.92;;;22.70;60.00;;;;;;5044363;28;20124;-77
2022/08/13 05:53:55;;;;;;;;;;;22.70;59.80;;;;;;5038307;28;20074;-78
2022/08/13 05:56:24;;;;;;;4.05;2.10;;;22.70;59.90;;;;;;5043613;28;19909;-79
2022/08/13 05:58:51;;;;;;;2.55;1.85;;;22.70;59.60;;;;;;5036828;28;20190;-79
2022/08/13 06:04:14;;;;;;;2.85;1.90;;;22.70;59.60;;;;;;5040807;28;20774;-82
2022/08/13 06:06:41;;;;;;;3.47;1.92;;;22.70;59.50;;;;;;5041631;28;20088;-80
2022/08/13 06:09:09;;;;;;;3.83;1.83;;;22.60;59.60;;;;;;5038534;28;20413;-80
2022/08/13 06:11:36;;;;;;;2.83;2.03;;;22.60;60.10;;;;;;5040909;28;20025;-79
2022/08/13 06:14:02;;;;;;;5.13;2.60;;;22.60;59.90;;;;;;5042948;28;20036;-80
2022/08/13 06:16:30;;;;;;;3.85;1.90;;;22.60;60.00;;;;;;5045596;28;20025;-78
2022/08/13 06:19:00;;;;;;;3.00;1.67;;;22.70;59.70;;;;;;5026591;28;20041;-78
2022/08/13 06:21:26;;;;;;;3.17;1.55;;;22.70;59.50;;;;;;5041740;28;20029;-78
2022/08/13 06:23:53;;;;;;;2.10;1.60;;;22.70;59.40;;;;;;5032011;28;20477;-78
2022/08/13 06:26:21;;;;;;;2.30;1.63;;;22.70;59.20;;;;;;5036911;28;20115;-78
2022/08/13 06:28:50;;;;;;;3.45;1.60;;;22.70;59.10;;;;;;5066764;28;20430;-77
2022/08/13 06:31:25;;;;;;;5.05;1.50;;;22.80;59.30;;;;;;5069745;28;20480;-78
2022/08/13 06:33:55;;;;;;;1.92;1.33;;;22.90;59.20;;;;;;5047371;28;20029;-79
2022/08/13 06:36:24;;;;;;;2.73;1.60;;;22.90;58.70;;;;;;5051488;28;20416;-77
2022/08/13 06:38:51;;;;;;;2.00;1.50;;;22.80;58.60;;;;;;5017522;28;20112;-77
2022/08/13 06:41:20;;;;;;;2.35;1.77;;;22.70;58.70;;;;;;5035763;28;20306;-77
2022/08/13 06:43:51;;;;;;;1.38;1.25;;;22.70;59.00;;;;;;5038602;28;20505;-78
2022/08/13 06:46:22;;;;;;;2.13;1.45;;;22.70;58.80;;;;;;5039416;28;20045;-77
2022/08/13 06:48:49;;;;;;;3.47;1.67;;;22.80;58.80;;;;;;5041383;28;20081;-77
2022/08/13 06:51:15;;;;;;;1.70;1.40;;;22.70;58.10;;;;;;5039806;28;20120;-77
2022/08/13 06:53:44;;;;;;;2.65;1.10;;;22.70;58.30;;;;;;5040725;28;20067;-77
2022/08/13 06:56:12;;;;;;;1.05;0.90;;;22.50;58.00;;;;;;5041120;28;20029;-77
2022/08/13 06:58:39;;;;;;;2.28;1.40;;;22.60;57.40;;;;;;5046735;28;20389;-77
2022/08/13 07:01:05;;;;;;;1.73;0.90;;;22.60;57.10;;;;;;5044326;28;20428;-77
2022/08/13 07:03:33;;;;;;;1.00;0.88;;;22.60;57.40;;;;;;5028820;28;20135;-77
2022/08/13 07:06:00;;;;;;;1.90;1.15;;;22.70;57.30;;;;;;5039242;28;20472;-77
2022/08/13 07:08:28;;;;;;;1.95;0.82;;;22.80;56.40;;;;;;5054228;28;20040;-78
2022/08/13 07:13:43;;;;;;;1.80;1.08;;;22.90;55.80;;;;;;5055611;28;20052;-77
2022/08/13 07:16:11;;;;;;;1.00;0.70;;;23.00;55.80;;;;;;5055598;28;20021;-77
2022/08/13 07:18:37;;;;;;;2.75;0.90;;;23.10;56.00;;;;;;5055480;28;20033;-77
2022/08/13 07:21:07;;;;;;;3.65;1.17;;;23.30;56.30;;;;;;5053737;28;20469;-77
2022/08/13 07:23:32;;;;;;;;;;;23.30;55.30;;;;;;5037807;28;20444;-77
2022/08/13 07:26:00;;;;;;;0.75;0.70;;;23.30;55.60;;;;;;5051821;28;19956;-77
2022/08/13 07:28:27;;;;;;;1.67;0.98;;;23.40;55.70;;;;;;5035796;28;20470;-78
2022/08/13 07:30:54;;;;;;;1.52;1.08;;;23.50;55.70;;;;;;5039600;28;20020;-78
2022/08/13 07:33:20;;;;;;;1.70;0.90;;;23.60;55.40;;;;;;5035321;28;20075;-77
2022/08/13 07:35:45;;;;;;;2.05;1.00;;;23.70;55.10;;;;;;5046285;28;20641;-78
2022/08/13 07:38:13;;;;;;;1.77;1.02;;;23.70;55.10;;;;;;5054418;28;20047;-77
2022/08/13 07:40:41;;;;;;;3.13;0.70;;;23.70;54.90;;;;;;5054665;28;20345;-78
2022/08/13 07:43:07;;;;;;;1.05;0.88;;;23.80;54.80;;;;;;5054699;28;20485;-77
2022/08/13 07:45:33;;;;;;;2.15;1.02;;;23.90;54.50;;;;;;5053726;28;20111;-78
2022/08/13 07:50:45;;;;;;;5.35;1.17;;;24.00;54.40;;;;;;5054089;28;20035;-77
2022/08/13 07:53:12;;;;;;;0.93;0.65;;;24.20;54.50;;;;;;5032999;28;20048;-78
2022/08/13 07:55:41;;;;;;;1.15;0.70;;;24.40;54.40;;;;;;5030271;28;20034;-78
2022/08/13 07:58:07;;;;;;;0.77;0.60;;;24.60;54.40;;;;;;5014551;28;20034;-78
2022/08/13 08:00:34;;;;;;;1.67;1.38;;;24.70;54.30;;;;;;5030549;28;20038;-78
2022/08/13 08:03:01;;;;;;;1.08;0.98;;;24.80;54.00;;;;;;5028722;28;20057;-78
2022/08/13 08:05:31;;;;;;;2.33;1.20;;;25.00;53.80;;;;;;5026768;28;20033;-78
2022/08/13 08:07:59;;;;;;;0.80;0.63;;;25.20;53.10;;;;;;5033350;28;20600;-76
2022/08/13 08:10:25;;;;;;;2.40;1.05;;;25.30;52.40;;;;;;5033532;28;20385;-77
2022/08/13 08:12:52;;;;;;;2.83;0.60;;;25.40;52.20;;;;;;5020196;28;20036;-78
2022/08/13 08:15:24;;;;;;;2.22;1.00;;;25.50;51.40;;;;;;5034552;28;20036;-80
2022/08/13 08:17:50;;;;;;;3.20;0.80;;;25.50;50.60;;;;;;5034689;28;20021;-81
2022/08/13 08:20:23;;;;;;;0.80;0.52;;;25.70;50.80;;;;;;5034517;28;20044;-81
2022/08/13 08:26:11;;;;;;;2.35;0.65;;;25.90;50.20;;;;;;5020746;28;20541;-81
2022/08/13 08:28:37;;;;;;;1.63;0.70;;;26.00;49.60;;;;;;5033053;28;20112;-79
2022/08/13 08:31:07;;;;;;;2.05;0.82;;;26.10;48.40;;;;;;5034052;28;20032;-79
2022/08/13 08:33:38;;;;;;;3.05;0.90;;;26.20;47.30;;;;;;5019488;28;20018;-77
2022/08/13 08:36:04;;;;;;;0.95;0.80;;;26.30;48.10;;;;;;5015068;28;20026;-77
2022/08/13 08:44:02;;;;;;;28.80;25.75;;;26.50;45.70;;;;;;5025936;28;20068;-76
2022/08/13 08:46:33;;;;;;;22.38;19.98;;;26.60;47.00;;;;;;5015677;28;20022;-77
2022/08/13 08:49:04;;;;;;;4.07;2.17;;;26.70;47.30;;;;;;5030297;28;20417;-76
2022/08/13 08:51:32;;;;;;;2.15;1.30;;;26.80;46.10;;;;;;5024462;28;20072;-77
2022/08/13 08:54:00;;;;;;;1.00;0.90;;;26.90;47.40;;;;;;5033039;28;20069;-77
2022/08/13 08:56:26;;;;;;;1.77;0.75;;;27.00;46.40;;;;;;5038057;28;20029;-77
2022/08/13 08:58:55;;;;;;;1.48;1.00;;;27.10;46.80;;;;;;5032948;28;20082;-77
2022/08/13 09:01:24;;;;;;;1.38;1.00;;;27.20;46.40;;;;;;5042915;28;20026;-77
2022/08/13 09:03:56;;;;;;;1.10;0.90;;;27.30;46.50;;;;;;5047940;28;20025;-77
2022/08/13 09:06:23;;;;;;;1.10;0.80;;;27.40;46.60;;;;;;5053521;28;20098;-77
2022/08/13 09:08:52;;;;;;;4.20;1.23;;;27.50;46.30;;;;;;5053372;28;20040;-77
2022/08/13 09:11:19;;;;;;;3.72;1.00;;;27.60;45.70;;;;;;5053343;28;20021;-77
2022/08/13 09:13:49;;;;;;;0.80;0.80;;;27.70;45.60;;;;;;5052933;28;20086;-76
2022/08/13 09:16:16;;;;;;;1.47;0.73;;;27.70;45.40;;;;;;5046394;28;20116;-76
2022/08/13 09:18:43;;;;;;;1.33;1.00;;;27.80;45.90;;;;;;5041043;28;20078;-76
2022/08/13 09:21:09;;;;;;;3.20;0.80;;;27.90;45.80;;;;;;5026326;28;20045;-76
2022/08/13 09:23:35;;;;;;;1.48;0.80;;;28.00;45.70;;;;;;5043783;28;20032;-76
2022/08/13 09:26:04;;;;;;;2.60;1.23;;;28.10;46.10;;;;;;5040943;28;20365;-76
2022/08/13 09:28:31;;;;;;;1.73;1.20;;;28.20;45.20;;;;;;5034889;28;20132;-77
2022/08/13 09:34:18;;;;;;;1.70;0.73;;;28.30;44.10;;;;;;5052847;28;20032;-80
2022/08/13 09:36:45;;;;;;;2.40;0.90;;;28.30;44.70;;;;;;5048765;28;20021;-78
2022/08/13 09:39:33;;;;;;;1.17;0.70;;;28.40;43.60;;;;;;5033394;28;20030;-77
2022/08/13 09:42:01;;;;;;;1.33;0.80;;;28.50;44.60;;;;;;5041923;28;20020;-77
2022/08/13 09:44:27;;;;;;;2.80;0.98;;;28.60;44.60;;;;;;5052718;28;20037;-77
2022/08/13 09:46:53;;;;;;;3.08;0.98;;;28.60;45.00;;;;;;5052868;28;20111;-77
2022/08/13 09:49:23;;;;;;;2.10;0.73;;;28.70;45.50;;;;;;5052581;28;20077;-77
2022/08/13 09:51:49;;;;;;;3.20;1.00;;;28.80;45.90;;;;;;5052683;28;20079;-77
2022/08/13 09:54:16;;;;;;;1.83;1.23;;;28.90;46.10;;;;;;5047190;28;20041;-77
2022/08/13 09:56:42;;;;;;;1.67;0.98;;;29.00;46.90;;;;;;5051413;28;20106;-77
2022/08/13 09:59:10;;;;;;;3.33;1.05;;;29.20;46.80;;;;;;5052315;28;20487;-77
2022/08/13 10:01:38;;;;;;;2.67;0.57;;;29.30;46.70;;;;;;5054437;28;20461;-77
2022/08/13 10:04:04;;;;;;;0.98;0.70;;;29.40;47.00;;;;;;5055042;28;20539;-76
2022/08/13 10:06:32;;;;;;;3.15;1.10;;;29.50;46.90;;;;;;5051407;28;20033;-78
2022/08/13 10:09:00;;;;;;;1.75;0.98;;;29.50;47.20;;;;;;5043710;28;20029;-78
2022/08/13 10:11:27;;;;;;;6.38;1.08;;;29.50;47.00;;;;;;5042756;28;20025;-79
2022/08/13 10:13:54;;;;;;;1.80;0.90;;;29.60;47.30;;;;;;5046500;28;20028;-78
2022/08/13 10:16:23;;;;;;;1.92;0.77;;;29.70;45.40;;;;;;5044127;28;20063;-78
2022/08/13 10:18:49;;;;;;;1.35;0.90;;;29.70;46.00;;;;;;5045767;28;20083;-79
2022/08/13 10:21:14;;;;;;;1.73;0.90;;;29.70;45.90;;;;;;5055557;28;20021;-79
2022/08/13 10:23:40;;;;;;;1.17;0.77;;;29.70;45.80;;;;;;5055376;28;20358;-78
2022/08/13 10:26:07;;;;;;;2.42;1.10;;;29.70;46.20;;;;;;5046952;28;20037;-79
2022/08/13 10:28:35;;;;;;;4.93;1.27;;;29.90;46.60;;;;;;5035091;28;20047;-78
2022/08/13 10:31:09;;;;;;;3.83;1.10;;;29.90;46.60;;;;;;5056305;28;20424;-78
2022/08/13 10:33:38;;;;;;;6.93;1.20;;;29.90;47.00;;;;;;5055413;28;20040;-79
2022/08/13 10:36:06;;;;;;;1.23;0.90;;;30.00;47.00;;;;;;5055896;28;20030;-79
2022/08/13 10:38:33;;;;;;;4.30;1.33;;;30.10;47.30;;;;;;5056038;28;20021;-79
2022/08/13 10:41:07;;;;;;;2.85;1.25;;;30.20;47.90;;;;;;5055570;28;20025;-79
2022/08/13 10:43:39;;;;;;;2.95;1.02;;;30.20;47.40;;;;;;5054940;28;20128;-76
2022/08/13 10:46:11;;;;;;;5.30;1.15;;;30.30;47.20;;;;;;5054644;28;20025;-80
2022/08/13 10:48:40;;;;;;;4.68;1.00;;;30.40;47.70;;;;;;5047047;28;20033;-79
2022/08/13 10:51:05;;;;;;;5.97;1.50;;;30.50;47.70;;;;;;4943288;22;20144;-74
2022/08/13 10:56:17;;;;;;;4.95;1.63;;;30.50;47.00;;;;;;5067522;28;20044;-78
2022/08/13 10:58:43;;;;;;;5.93;1.17;;;30.60;47.30;;;;;;5059468;28;20492;-76
2022/08/13 11:01:10;;;;;;;4.97;1.80;;;30.80;47.00;;;;;;5072188;28;20048;-78
2022/08/13 11:03:36;;;;;;;1.80;0.82;;;30.80;46.40;;;;;;5075231;28;20032;-77
2022/08/13 11:06:05;;;;;;;5.72;1.60;;;30.80;47.00;;;;;;5065890;28;20025;-78
2022/08/13 11:08:34;;;;;;;2.13;0.98;;;30.90;47.40;;;;;;5069376;28;20020;-77
2022/08/13 11:11:00;;;;;;;2.50;1.00;;;31.00;47.60;;;;;;5064303;28;20067;-77
2022/08/13 11:13:26;;;;;;;3.50;1.10;;;31.00;47.70;;;;;;5055786;28;20115;-77
2022/08/13 11:15:51;;;;;;;3.03;1.40;;;31.10;47.30;;;;;;5057877;28;20025;-77
2022/08/13 11:18:18;;;;;;;2.17;1.30;;;31.10;47.10;;;;;;5056486;28;20033;-81
2022/08/13 11:21:02;;;;;;;6.82;1.02;;;31.00;47.10;;;;;;5055304;28;20127;-81
2022/08/13 11:23:29;;;;;;;1.52;0.93;;;31.00;47.10;;;;;;5059976;28;20389;-81
2022/08/13 11:25:55;;;;;;;4.53;1.40;;;31.00;47.10;;;;;;5068389;28;20024;-81
2022/08/13 11:28:33;;;;;;;2.15;1.05;;;30.90;47.10;;;;;;5068411;28;20056;-81
2022/08/13 11:31:00;;;;;;;1.23;0.93;;;30.90;47.60;;;;;;5050914;28;20120;-81
2022/08/13 11:33:26;;;;;;;5.20;1.30;;;30.80;47.70;;;;;;5052300;28;20343;-81
2022/08/13 11:35:52;;;;;;;4.47;1.00;;;30.80;48.00;;;;;;5058316;28;20722;-81
2022/08/13 11:38:22;;;;;;;3.65;1.48;;;30.70;48.00;;;;;;5072787;28;20523;-81
2022/08/13 11:40:57;;;;;;;2.92;0.98;;;30.60;47.90;;;;;;5071970;28;20033;-80
2022/08/13 11:43:30;;;;;;;1.67;1.10;;;30.50;47.60;;;;;;5070542;28;20077;-81
2022/08/13 11:45:56;;;;;;;5.13;1.20;;;30.40;47.00;;;;;;5072230;28;20029;-80
2022/08/13 11:48:23;;;;;;;2.15;1.20;;;30.40;47.60;;;;;;5071625;28;20029;-81
2022/08/13 11:50:50;;;;;;;3.42;1.13;;;30.40;47.60;;;;;;5072264;28;20639;-81
2022/08/13 11:53:17;;;;;;;1.83;0.98;;;30.40;47.40;;;;;;5060073;28;20037;-81
2022/08/13 11:55:42;;;;;;;3.17;1.13;;;30.40;47.00;;;;;;5068308;28;20032;-81
2022/08/13 11:58:08;;;;;;;3.17;1.13;;;30.30;46.80;;;;;;5071637;28;20036;-81
2022/08/13 12:00:36;;;;;;;2.97;1.10;;;30.30;46.90;;;;;;5056566;28;20493;-81
2022/08/13 12:03:02;;;;;;;5.82;1.50;;;30.30;47.60;;;;;;5060522;28;20028;-80
2022/08/13 12:05:28;;;;;;;2.53;1.10;;;30.20;47.20;;;;;;5071510;28;20400;-80
2022/08/13 12:07:54;;;;;;;2.25;1.02;;;30.20;47.30;;;;;;5057953;28;20033;-80
2022/08/13 12:10:20;;;;;;;2.25;1.00;;;30.40;47.30;;;;;;5069888;28;20028;-81
2022/08/13 12:12:46;;;;;;;1.95;0.90;;;30.40;47.10;;;;;;5070737;28;20028;-81
2022/08/13 12:15:12;;;;;;;2.78;1.10;;;30.50;46.60;;;;;;5066779;28;20102;-81
2022/08/13 12:17:46;;;;;;;2.10;1.10;;;30.50;46.90;;;;;;5053636;28;20059;-81
2022/08/13 12:20:23;;;;;;;1.67;1.00;;;30.50;47.00;;;;;;5065740;28;20507;-81
2022/08/13 12:22:51;;;;;;;3.58;1.10;;;30.40;47.00;;;;;;5063407;28;20044;-81
2022/08/13 12:25:16;;;;;;;1.67;1.10;;;30.30;47.00;;;;;;5060664;28;20111;-81
2022/08/13 12:27:42;;;;;;;1.05;0.90;;;30.30;47.40;;;;;;5063629;28;20104;-82
2022/08/13 12:30:08;;;;;;;2.60;0.98;;;30.40;47.00;;;;;;5059385;28;20029;-81
2022/08/13 12:32:34;;;;;;;0.93;0.80;;;30.40;46.80;;;;;;5056192;28;20040;-81
2022/08/13 12:34:59;;;;;;;1.67;1.00;;;30.40;47.10;;;;;;5053791;28;20070;-80
2022/08/13 12:37:26;;;;;;;1.33;0.93;;;30.50;46.50;;;;;;5052700;28;20519;-81
2022/08/13 12:39:53;;;;;;;1.98;1.20;;;30.60;46.90;;;;;;5053820;28;20051;-81
2022/08/13 12:42:19;;;;;;;1.88;0.98;;;30.70;46.00;;;;;;5063202;28;20055;-80
2022/08/13 12:44:45;;;;;;;3.17;1.05;;;30.90;45.70;;;;;;5073608;28;20036;-81
2022/08/13 12:47:10;;;;;;;3.25;0.88;;;31.20;45.30;;;;;;5073794;28;20020;-81
2022/08/13 12:49:36;;;;;;;1.73;1.10;;;31.60;45.10;;;;;;5073626;28;20376;-81
2022/08/13 12:52:02;;;;;;;1.23;0.90;;;31.90;44.90;;;;;;5066966;28;20423;-81
2022/08/13 12:54:28;;;;;;;2.08;1.20;;;32.20;44.40;;;;;;5066723;28;20044;-81
2022/08/13 12:56:54;;;;;;;1.80;0.90;;;32.40;43.60;;;;;;5073029;28;20060;-80
2022/08/13 12:59:19;;;;;;;1.33;0.80;;;32.60;43.20;;;;;;5073393;28;20020;-82
2022/08/13 13:01:52;;;;;;;1.92;0.90;;;32.80;43.30;;;;;;5073559;28;20028;-81
2022/08/13 13:04:22;;;;;;;1.63;0.90;;;33.00;42.90;;;;;;5066337;28;20052;-81
2022/08/13 13:06:51;;;;;;;3.00;1.23;;;32.80;42.70;;;;;;5066386;28;20047;-81
2022/08/13 13:09:17;;;;;;;2.92;0.90;;;32.70;42.60;;;;;;5052775;28;20041;-81
2022/08/13 13:11:42;;;;;;;1.40;0.93;;;32.60;42.60;;;;;;5053587;28;20039;-81
2022/08/13 13:14:09;;;;;;;3.72;1.15;;;32.70;42.70;;;;;;5053655;28;20025;-81
2022/08/13 13:16:35;;;;;;;2.95;1.27;;;32.80;42.60;;;;;;5057523;28;20059;-81
2022/08/13 13:19:02;;;;;;;1.77;0.82;;;32.90;42.60;;;;;;5073167;28;20045;-81
2022/08/13 13:21:31;;;;;;;3.08;1.02;;;33.00;42.50;;;;;;5073380;28;20081;-81
2022/08/13 13:23:57;;;;;;;2.25;0.88;;;33.00;42.00;;;;;;5071644;28;20044;-81